createdAt,value
2019-02-04T00:00:42.112Z,101227.67
2019-02-04T00:03:12.007Z,101223.89
2019-02-04T00:05:40.052Z,101216.69
2019-02-04T00:08:08.148Z,101220.28
2019-02-04T00:10:36.277Z,101220.37
2019-02-04T00:13:05.162Z,101214.00
2019-02-04T00:15:33.276Z,101212.70
2019-02-04T00:18:01.336Z,101219.66
2019-02-04T00:20:29.743Z,101218.45
2019-02-04T00:22:57.945Z,101217.23
2019-02-04T00:25:26.388Z,101211.89
2019-02-04T00:27:55.432Z,101215.59
2019-02-04T00:30:23.924Z,101219.58
2019-02-04T00:32:53.058Z,101223.92
2019-02-04T00:35:21.113Z,101221.91
2019-02-04T00:37:49.153Z,101228.45
2019-02-04T00:40:17.935Z,101234.56
2019-02-04T00:42:46.416Z,101241.14
2019-02-04T00:45:14.851Z,101241.50
2019-02-04T00:47:42.930Z,101235.12
2019-02-04T00:50:11.464Z,101235.95
2019-02-04T00:52:39.505Z,101231.24
2019-02-04T00:55:08.107Z,101232.17
2019-02-04T00:57:36.195Z,101232.17
2019-02-04T01:00:08.433Z,101241.23
2019-02-04T01:02:36.541Z,101239.65
2019-02-04T01:05:06.508Z,101245.03
2019-02-04T01:07:34.572Z,101243.17
2019-02-04T01:10:03.434Z,101244.09
2019-02-04T01:12:31.485Z,101244.20
2019-02-04T01:14:59.525Z,101243.37
2019-02-04T01:17:27.599Z,101230.52
2019-02-04T01:19:55.661Z,101244.36
2019-02-04T01:22:23.737Z,101243.53
2019-02-04T01:24:51.791Z,101244.77
2019-02-04T01:27:19.847Z,101246.42
2019-02-04T01:29:48.230Z,101250.31
2019-02-04T01:32:16.271Z,101255.86
2019-02-04T01:34:44.580Z,101260.11
2019-02-04T01:37:12.675Z,101255.29
2019-02-04T01:39:40.710Z,101254.73
2019-02-04T01:42:08.775Z,101256.59
2019-02-04T01:44:37.562Z,101263.43
2019-02-04T01:47:14.478Z,101266.38
2019-02-04T01:49:35.652Z,101258.61
2019-02-04T01:52:03.713Z,101267.25
2019-02-04T01:54:31.768Z,101267.25
2019-02-04T01:56:59.829Z,101271.56
2019-02-04T01:59:29.051Z,101272.86
2019-02-04T02:01:57.125Z,101272.96
2019-02-04T02:04:25.167Z,101269.53
2019-02-04T02:06:53.187Z,101270.10
2019-02-04T02:09:24.221Z,101265.84
2019-02-04T02:11:52.385Z,101261.59
2019-02-04T02:14:20.964Z,101265.02
2019-02-04T02:16:48.924Z,101266.31
2019-02-04T02:19:17.385Z,101263.80
2019-02-04T02:21:45.322Z,101272.13
2019-02-04T02:24:13.360Z,101264.34
2019-02-04T02:26:41.373Z,101257.97
2019-02-04T02:29:09.894Z,101259.27
2019-02-04T02:31:37.887Z,101266.11
2019-02-04T02:34:05.921Z,101262.79
2019-02-04T02:36:34.315Z,101263.78
2019-02-04T02:39:04.431Z,101269.98
2019-02-04T02:41:32.429Z,101267.20
2019-02-04T02:44:00.603Z,101273.39
2019-02-04T02:46:28.963Z,101272.73
2019-02-04T02:48:56.978Z,101277.17
2019-02-04T02:51:24.979Z,101277.06
2019-02-04T02:53:53.094Z,101278.18
2019-02-04T02:56:21.119Z,101281.39
2019-02-04T02:58:49.170Z,101280.81
2019-02-04T03:01:17.214Z,101278.78
2019-02-04T03:03:45.266Z,101293.58
2019-02-04T03:06:13.300Z,101286.90
2019-02-04T03:08:41.407Z,101289.21
2019-02-04T03:11:09.451Z,101293.55
2019-02-04T03:13:37.493Z,101292.05
2019-02-04T03:16:05.774Z,101292.77
2019-02-04T03:18:34.136Z,101286.75
2019-02-04T03:21:02.160Z,101298.40
2019-02-04T03:23:30.192Z,101298.49
2019-02-04T03:25:58.259Z,101303.39
2019-02-04T03:28:26.327Z,101308.20
2019-02-04T03:30:54.357Z,101304.56
2019-02-04T03:33:22.779Z,101315.16
2019-02-04T03:35:51.152Z,101315.80
2019-02-04T03:38:19.193Z,101313.09
2019-02-04T03:40:47.277Z,101311.52
2019-02-04T03:43:15.469Z,101305.05
2019-02-04T03:45:43.911Z,101298.27
2019-02-04T03:48:11.956Z,101304.00
2019-02-04T03:50:39.993Z,101303.27
2019-02-04T03:53:08.035Z,101302.12
2019-02-04T03:55:36.041Z,101311.34
2019-02-04T03:58:04.212Z,101311.04
2019-02-04T04:00:34.500Z,101308.91
2019-02-04T04:03:02.711Z,101302.91
2019-02-04T04:05:30.580Z,101293.95
2019-02-04T04:07:58.804Z,101297.09
2019-02-04T04:10:26.841Z,101301.48
2019-02-04T04:12:54.874Z,101301.58
2019-02-04T04:15:23.175Z,101297.94
2019-02-04T04:17:51.440Z,101298.58
2019-02-04T04:20:19.855Z,101302.55
2019-02-04T04:22:47.931Z,101306.11
2019-02-04T04:25:15.996Z,101304.53
2019-02-04T04:27:45.806Z,101308.50
2019-02-04T04:30:23.964Z,101315.02
2019-02-04T04:32:53.445Z,101319.08
2019-02-04T04:35:21.539Z,101321.75
2019-02-04T04:37:51.697Z,101321.52
2019-02-04T04:40:21.355Z,101326.49
2019-02-04T04:42:49.472Z,101325.89
2019-02-04T04:45:20.479Z,101322.25
2019-02-04T04:47:49.010Z,101326.67
2019-02-04T04:50:17.503Z,101325.84
2019-02-04T04:52:45.608Z,101326.34
2019-02-04T04:55:17.775Z,101327.36
2019-02-04T04:57:46.164Z,101317.71
2019-02-04T05:00:18.697Z,101320.38
2019-02-04T05:02:46.955Z,101316.97
2019-02-04T05:05:15.221Z,101310.97
2019-02-04T05:07:43.396Z,101313.18
2019-02-04T05:10:14.850Z,101317.14
2019-02-04T05:12:42.888Z,101319.11
2019-02-04T05:15:22.980Z,101317.50
2019-02-04T05:17:52.679Z,101321.46
2019-02-04T05:20:21.574Z,101327.17
2019-02-04T05:22:49.664Z,101331.64
2019-02-04T05:25:19.233Z,101328.77
2019-02-04T05:27:47.486Z,101330.15
2019-02-04T05:30:18.377Z,101325.91
2019-02-04T05:32:46.450Z,101332.49
2019-02-04T05:35:14.869Z,101327.95
2019-02-04T05:37:43.499Z,101332.29
2019-02-04T05:40:13.511Z,101321.64
2019-02-04T05:42:43.418Z,101322.19
2019-02-04T05:45:13.399Z,101322.27
2019-02-04T05:47:41.483Z,101316.78
2019-02-04T05:50:12.918Z,101314.37
2019-02-04T05:52:40.945Z,101306.55
2019-02-04T05:55:10.226Z,101309.59
2019-02-04T05:57:38.764Z,101310.19
2019-02-04T06:00:10.929Z,101301.23
2019-02-04T06:02:40.546Z,101308.06
2019-02-04T06:05:10.264Z,101306.77
2019-02-04T06:07:38.468Z,101308.15
2019-02-04T06:10:08.098Z,101302.98
2019-02-04T06:12:36.301Z,101290.67
2019-02-04T06:15:06.133Z,101289.47
2019-02-04T06:17:35.745Z,101285.39
2019-02-04T06:20:06.963Z,101287.19
2019-02-04T06:22:35.073Z,101291.14
2019-02-04T06:25:04.329Z,101292.06
2019-02-04T06:27:32.394Z,101299.42
2019-02-04T06:30:00.659Z,101295.64
2019-02-04T06:32:29.217Z,101290.52
2019-02-04T06:37:26.873Z,101294.86
2019-02-04T06:42:24.275Z,101298.72
2019-02-04T06:44:52.656Z,101307.00
2019-02-04T06:47:21.180Z,101313.38
2019-02-04T06:49:49.228Z,101313.38
2019-02-04T06:52:18.979Z,101325.35
2019-02-04T06:54:47.155Z,101325.89
2019-02-04T06:57:15.989Z,101336.30
2019-02-04T06:59:44.569Z,101340.16
2019-02-04T07:02:12.656Z,101340.30
2019-02-04T07:04:40.695Z,101343.41
2019-02-04T07:07:08.797Z,101350.69
2019-02-04T07:09:37.559Z,101357.06
2019-02-04T07:12:05.803Z,101354.02
2019-02-04T07:14:34.012Z,101351.15
2019-02-04T07:17:02.109Z,101349.86
2019-02-04T07:19:30.183Z,101356.31
2019-02-04T07:21:58.261Z,101363.59
2019-02-04T07:24:27.401Z,101364.80
2019-02-04T07:26:55.443Z,101376.41
2019-02-04T07:29:25.132Z,101380.61
2019-02-04T07:31:53.200Z,101381.20
2019-02-04T07:34:21.740Z,101388.81
2019-02-04T07:36:51.010Z,101380.91
2019-02-04T07:39:19.255Z,101377.73
2019-02-04T07:41:47.325Z,101371.91
2019-02-04T07:44:15.498Z,101379.20
2019-02-04T07:46:43.892Z,101383.68
2019-02-04T07:49:11.897Z,101387.56
2019-02-04T07:51:41.558Z,101385.24
2019-02-04T07:54:11.468Z,101390.63
2019-02-04T07:56:39.749Z,101390.72
2019-02-04T07:59:07.791Z,101388.14
2019-02-04T08:01:39.245Z,101386.79
2019-02-04T08:04:07.478Z,101390.16
2019-02-04T08:06:35.539Z,101391.57
2019-02-04T08:09:07.755Z,101386.56
2019-02-04T08:11:38.045Z,101386.71
2019-02-04T08:14:07.417Z,101387.66
2019-02-04T08:16:35.631Z,101384.69
2019-02-04T08:19:03.973Z,101385.93
2019-02-04T08:21:32.074Z,101383.11
2019-02-04T08:24:00.179Z,101385.41
2019-02-04T08:26:28.306Z,101380.05
2019-02-04T08:28:56.669Z,101376.65
2019-02-04T08:31:24.938Z,101372.11
2019-02-04T08:33:53.031Z,101375.11
2019-02-04T08:36:21.065Z,101370.85
2019-02-04T08:38:50.434Z,101366.48
2019-02-04T08:41:19.285Z,101369.33
2019-02-04T08:43:47.410Z,101366.36
2019-02-04T08:46:16.838Z,101367.86
2019-02-04T08:48:44.887Z,101359.61
2019-02-04T08:51:12.920Z,101360.06
2019-02-04T08:53:41.086Z,101358.31
2019-02-04T08:56:09.103Z,101354.92
2019-02-04T08:58:37.352Z,101351.22
2019-02-04T09:01:05.909Z,101348.35
2019-02-04T09:03:33.912Z,101347.73
2019-02-04T09:06:01.882Z,101346.33
2019-02-04T09:08:30.357Z,101337.89
2019-02-04T09:10:58.413Z,101328.75
2019-02-04T09:13:26.460Z,101324.43
2019-02-04T09:15:54.577Z,101327.34
2019-02-04T09:18:22.699Z,101325.39
2019-02-04T09:20:50.723Z,101321.73
2019-02-04T09:23:18.779Z,101324.87
2019-02-04T09:25:46.799Z,101330.20
2019-02-04T09:28:14.906Z,101331.34
2019-02-04T09:30:42.979Z,101331.59
2019-02-04T09:33:11.049Z,101331.68
2019-02-04T09:35:39.085Z,101331.87
2019-02-04T09:38:07.695Z,101332.18
2019-02-04T09:40:44.918Z,101333.16
2019-02-04T09:43:13.101Z,101325.63
2019-02-04T09:45:43.092Z,101327.03
2019-02-04T09:48:16.271Z,101324.32
2019-02-04T09:50:45.196Z,101318.60
2019-02-04T09:53:13.259Z,101316.40
2019-02-04T09:55:41.301Z,101323.67
2019-02-04T09:58:09.339Z,101332.27
2019-02-04T10:00:37.520Z,101330.75
2019-02-04T10:03:05.685Z,101327.38
2019-02-04T10:05:34.664Z,101328.37
2019-02-04T10:08:03.521Z,101319.30
2019-02-04T10:10:31.562Z,101326.20
2019-02-04T10:12:59.795Z,101323.53
2019-02-04T10:15:31.551Z,101315.91
2019-02-04T10:18:00.584Z,101308.58
2019-02-04T10:20:34.306Z,101306.20
2019-02-04T10:22:59.780Z,101307.48
2019-02-04T10:25:31.025Z,101305.79
2019-02-04T10:27:59.109Z,101300.00
2019-02-04T10:30:27.300Z,101300.30
2019-02-04T10:32:55.393Z,101300.08
2019-02-04T10:35:24.406Z,101294.46
2019-02-04T10:37:52.899Z,101291.13
2019-02-04T10:40:23.066Z,101282.50
2019-02-04T10:42:52.168Z,101276.99
2019-02-04T10:45:20.397Z,101266.50
2019-02-04T10:47:48.637Z,101257.17
2019-02-04T10:50:25.663Z,101253.16
2019-02-04T10:52:54.252Z,101250.05
2019-02-04T10:55:22.354Z,101251.59
2019-02-04T10:57:50.465Z,101242.20
2019-02-04T11:00:21.928Z,101241.47
2019-02-04T11:02:50.231Z,101241.27
2019-02-04T11:05:22.361Z,101229.70
2019-02-04T11:07:50.675Z,101228.64
2019-02-04T11:10:21.500Z,101225.70
2019-02-04T11:12:50.030Z,101223.81
2019-02-04T11:15:18.152Z,101217.49
2019-02-04T11:17:46.852Z,101208.16
2019-02-04T11:20:22.444Z,101196.91
2019-02-04T11:22:50.656Z,101189.66
2019-02-04T11:25:18.951Z,101186.89
2019-02-04T11:27:47.086Z,101181.88
2019-02-04T11:30:22.531Z,101181.12
2019-02-04T11:32:50.979Z,101184.43
2019-02-04T11:35:19.078Z,101177.50
2019-02-04T11:37:47.471Z,101183.38
2019-02-04T11:40:32.657Z,101179.28
2019-02-04T11:43:00.749Z,101167.54
2019-02-04T11:45:29.587Z,101167.14
2019-02-04T11:47:57.792Z,101164.23
2019-02-04T11:50:25.877Z,101164.91
2019-02-04T11:52:53.916Z,101160.47
2019-02-04T11:55:22.367Z,101150.66
2019-02-04T11:57:50.431Z,101144.12
2019-02-04T12:00:21.772Z,101142.59
2019-02-04T12:02:50.666Z,101136.59
2019-02-04T12:05:20.044Z,101135.95
2019-02-04T12:07:48.607Z,101132.11
2019-02-04T12:10:20.828Z,101127.31
2019-02-04T12:12:49.257Z,101119.41
2019-02-04T12:15:19.327Z,101119.15
2019-02-04T12:17:47.570Z,101115.13
2019-02-04T12:20:16.622Z,101107.19
2019-02-04T12:22:45.290Z,101111.94
2019-02-04T12:25:16.365Z,101113.41
2019-02-04T12:27:44.792Z,101113.27
2019-02-04T12:30:24.634Z,101116.61
2019-02-04T12:32:52.719Z,101112.68
2019-02-04T12:35:20.824Z,101112.11
2019-02-04T12:37:49.192Z,101114.72
2019-02-04T12:40:17.685Z,101111.11
2019-02-04T12:42:45.734Z,101111.13
2019-02-04T12:45:19.205Z,101101.14
2019-02-04T12:47:47.423Z,101096.94
2019-02-04T12:50:15.531Z,101089.73
2019-02-04T12:52:43.749Z,101090.84
2019-02-04T12:55:15.511Z,101089.74
2019-02-04T12:57:44.639Z,101083.21
2019-02-04T13:00:17.424Z,101083.48
2019-02-04T13:02:45.443Z,101080.92
2019-02-04T13:05:20.809Z,101077.66
2019-02-04T13:07:48.999Z,101078.69
2019-02-04T13:10:17.496Z,101081.97
2019-02-04T13:12:45.645Z,101072.77
2019-02-04T13:15:17.489Z,101080.64
2019-02-04T13:17:45.772Z,101075.56
2019-02-04T13:20:17.523Z,101070.77
2019-02-04T13:22:45.574Z,101068.85
2019-02-04T13:25:19.465Z,101074.95
2019-02-04T13:27:47.661Z,101077.33
2019-02-04T13:30:17.913Z,101080.58
2019-02-04T13:32:46.009Z,101075.58
2019-02-04T13:35:15.500Z,101076.27
2019-02-04T13:37:43.705Z,101066.92
2019-02-04T13:40:16.902Z,101065.19
2019-02-04T13:42:44.921Z,101068.44
2019-02-04T13:45:15.472Z,101066.42
2019-02-04T13:47:43.905Z,101063.14
2019-02-04T13:50:12.632Z,101068.48
2019-02-04T13:52:40.725Z,101072.88
2019-02-04T13:55:12.674Z,101074.22
2019-02-04T13:57:41.404Z,101060.61
2019-02-04T14:00:12.280Z,101063.05
2019-02-04T14:02:40.917Z,101058.36
2019-02-04T14:05:09.330Z,101060.55
2019-02-04T14:07:39.499Z,101052.59
2019-02-04T14:10:15.891Z,101053.16
2019-02-04T14:12:45.557Z,101057.27
2019-02-04T14:15:15.103Z,101059.01
2019-02-04T14:17:43.146Z,101060.30
2019-02-04T14:20:15.220Z,101066.75
2019-02-04T14:22:45.395Z,101066.99
2019-02-04T14:25:14.515Z,101055.85
2019-02-04T14:27:42.979Z,101064.23
2019-02-04T14:30:16.141Z,101062.12
2019-02-04T14:32:44.148Z,101066.31
2019-02-04T14:35:12.397Z,101068.23
2019-02-04T14:37:45.047Z,101062.14
2019-02-04T14:40:18.470Z,101060.22
2019-02-04T14:42:45.568Z,101061.67
2019-02-04T14:46:12.686Z,101069.25
2019-02-04T14:49:22.464Z,101061.09
2019-02-04T14:52:50.827Z,101056.65
2019-02-04T14:56:08.147Z,101052.09
2019-02-04T14:59:13.353Z,101042.02
2019-02-04T15:02:32.056Z,101042.97
2019-02-04T15:05:25.913Z,101041.59
2019-02-04T15:08:50.692Z,101038.66
2019-02-04T15:12:36.823Z,101034.67
2019-02-04T15:15:49.136Z,101028.62
2019-02-04T15:19:05.706Z,101032.72
2019-02-04T15:22:33.588Z,101021.64
2019-02-04T15:26:03.220Z,101018.28
2019-02-04T15:29:46.181Z,101023.82
2019-02-04T15:33:12.382Z,101021.72
2019-02-04T15:36:21.813Z,101018.98
2019-02-04T15:40:05.103Z,101018.19
2019-02-04T15:43:44.859Z,101022.78
2019-02-04T15:46:40.729Z,101019.64
2019-02-04T15:50:10.132Z,101021.92
2019-02-04T15:52:45.715Z,101023.05
2019-02-04T15:55:13.754Z,101041.38
2019-02-04T15:57:42.778Z,101038.34
2019-02-04T16:00:12.561Z,101039.59
2019-02-04T16:02:41.789Z,101042.63
2019-02-04T16:05:10.081Z,101043.02
2019-02-04T16:07:40.909Z,101039.76
2019-02-04T16:10:13.190Z,101041.78
2019-02-04T16:12:41.244Z,101047.06
2019-02-04T16:15:11.569Z,101039.97
2019-02-04T16:17:40.235Z,101038.62
2019-02-04T16:20:18.103Z,101032.53
2019-02-04T16:22:57.483Z,101040.70
2019-02-04T16:25:16.778Z,101042.93
2019-02-04T16:27:47.107Z,101043.87
2019-02-04T16:30:20.124Z,101044.77
2019-02-04T16:32:48.234Z,101051.89
2019-02-04T16:35:17.922Z,101056.73
2019-02-04T16:37:47.639Z,101053.31
2019-02-04T16:40:18.420Z,101061.34
2019-02-04T16:42:46.883Z,101058.26
2019-02-04T16:45:16.685Z,101058.25
2019-02-04T16:47:44.784Z,101063.84
2019-02-04T16:50:17.769Z,101066.76
2019-02-04T16:52:48.093Z,101064.94
2019-02-04T16:55:15.877Z,101068.66
2019-02-04T16:57:44.108Z,101061.09
2019-02-04T17:00:19.230Z,101062.35
2019-02-04T17:02:47.788Z,101072.10
2019-02-04T17:05:16.402Z,101072.89
2019-02-04T17:07:44.633Z,101074.64
2019-02-04T17:10:17.562Z,101079.48
2019-02-04T17:12:47.151Z,101082.78
2019-02-04T17:15:15.519Z,101085.42
2019-02-04T17:17:44.079Z,101091.79
2019-02-04T17:20:17.159Z,101091.98
2019-02-04T17:22:45.324Z,101100.99
2019-02-04T17:25:13.475Z,101097.83
2019-02-04T17:27:42.398Z,101095.91
2019-02-04T17:30:15.197Z,101103.62
2019-02-04T17:32:43.298Z,101098.12
2019-02-04T17:35:12.456Z,101097.84
2019-02-04T17:37:41.519Z,101099.58
2019-02-04T17:40:13.903Z,101099.15
2019-02-04T17:42:41.654Z,101100.42
2019-02-04T17:45:11.391Z,101105.47
2019-02-04T17:47:39.359Z,101108.11
2019-02-04T17:50:08.748Z,101103.75
2019-02-04T17:52:36.500Z,101096.45
2019-02-04T17:55:08.861Z,101102.17
2019-02-04T17:57:36.552Z,101101.36
2019-02-04T18:00:08.441Z,101109.44
2019-02-04T18:02:36.261Z,101111.54
2019-02-04T18:05:05.102Z,101111.22
2019-02-04T18:07:32.890Z,101114.17
2019-02-04T18:10:00.670Z,101117.97
2019-02-04T18:12:28.604Z,101112.73
2019-02-04T18:14:56.508Z,101118.53
2019-02-04T18:17:24.485Z,101112.14
2019-02-04T18:19:52.140Z,101114.02
2019-02-04T18:22:20.149Z,101120.87
2019-02-04T18:24:48.318Z,101117.54
2019-02-04T18:27:15.874Z,101117.52
2019-02-04T18:29:44.153Z,101127.44
2019-02-04T18:32:13.230Z,101128.36
2019-02-04T18:34:40.732Z,101130.11
2019-02-04T18:37:08.586Z,101134.23
2019-02-04T18:39:36.173Z,101130.06
2019-02-04T18:42:04.053Z,101135.23
2019-02-04T18:44:31.900Z,101138.08
2019-02-04T18:46:59.529Z,101135.45
2019-02-04T18:49:27.225Z,101137.53
2019-02-04T18:51:54.851Z,101139.08
2019-02-04T18:54:23.075Z,101141.87
2019-02-04T18:56:50.789Z,101143.41
2019-02-04T18:59:18.650Z,101146.13
2019-02-04T19:01:46.314Z,101147.42
2019-02-04T19:04:15.601Z,101148.45
2019-02-04T19:06:47.682Z,101148.33
2019-02-04T19:09:13.751Z,101143.92
2019-02-04T19:11:43.872Z,101152.04
2019-02-04T19:14:11.682Z,101148.02
2019-02-04T19:16:41.423Z,101141.72
2019-02-04T19:19:09.183Z,101145.92
2019-02-04T19:21:38.297Z,101147.10
2019-02-04T19:24:09.721Z,101143.52
2019-02-04T19:26:35.721Z,101134.38
2019-02-04T19:29:03.759Z,101143.89
2019-02-04T19:31:31.382Z,101143.95
2019-02-04T19:33:59.069Z,101147.20
2019-02-04T19:36:31.062Z,101137.81
2019-02-04T19:39:00.307Z,101138.34
2019-02-04T19:41:28.103Z,101139.95
2019-02-04T19:43:55.577Z,101138.95
2019-02-04T19:46:23.218Z,101140.11
2019-02-04T19:48:51.247Z,101145.45
2019-02-04T19:54:05.546Z,101143.38
2019-02-04T19:56:33.137Z,101136.47
2019-02-04T19:59:02.027Z,101133.73
2019-02-04T20:01:29.595Z,101141.60
2019-02-04T20:03:57.598Z,101136.62
2019-02-04T20:06:25.159Z,101137.57
2019-02-04T20:08:52.875Z,101139.52
2019-02-04T20:11:20.754Z,101138.91
2019-02-04T20:13:48.239Z,101138.73
2019-02-04T20:16:15.997Z,101136.44
2019-02-04T20:18:43.523Z,101127.94
2019-02-04T20:21:12.535Z,101128.62
2019-02-04T20:23:40.139Z,101129.16
2019-02-04T20:26:34.669Z,101136.11
2019-02-04T20:29:02.429Z,101135.75
2019-02-04T20:31:30.488Z,101135.14
2019-02-04T20:33:59.368Z,101142.06
2019-02-04T20:36:26.899Z,101134.49
2019-02-04T20:38:54.634Z,101132.11
2019-02-04T20:41:22.186Z,101140.15
2019-02-04T20:43:49.846Z,101138.67
2019-02-04T20:46:17.769Z,101133.59
2019-02-04T20:48:46.831Z,101138.31
2019-02-04T20:51:28.138Z,101138.31
2019-02-04T20:53:58.329Z,101143.14
2019-02-04T20:56:26.116Z,101139.36
2019-02-04T20:59:01.162Z,101145.95
2019-02-04T21:01:39.483Z,101145.95
2019-02-04T21:04:07.158Z,101146.13
2019-02-04T21:06:35.186Z,101145.77
2019-02-04T21:09:09.315Z,101142.81
2019-02-04T21:11:37.100Z,101152.45
2019-02-04T21:14:05.358Z,101152.06
2019-02-04T21:27:35.915Z,101152.30
2019-02-04T21:30:17.460Z,101155.28
2019-02-04T21:32:47.523Z,101163.06
2019-02-04T21:35:15.337Z,101158.23
2019-02-04T21:37:45.030Z,101160.00
2019-02-04T21:40:13.139Z,101158.23
2019-02-04T21:42:40.781Z,101163.42
2019-02-04T21:45:11.543Z,101170.84
2019-02-04T21:47:40.194Z,101171.88
2019-02-04T21:50:12.145Z,101177.06
2019-02-04T21:52:39.826Z,101165.67
2019-02-04T21:55:08.910Z,101165.31
2019-02-04T21:57:36.622Z,101175.11
2019-02-04T22:00:08.715Z,101174.39
2019-02-04T22:02:36.452Z,101175.78
2019-02-04T22:05:07.468Z,101175.31
2019-02-04T22:07:35.235Z,101171.90
2019-02-04T22:10:05.209Z,101161.13
2019-02-04T22:12:33.006Z,101168.65
2019-02-04T22:15:00.491Z,101159.58
2019-02-04T22:17:28.405Z,101160.62
2019-02-04T22:19:55.892Z,101167.16
2019-02-04T22:22:23.709Z,101165.87
2019-02-04T22:24:51.130Z,101179.30
2019-02-04T22:27:19.057Z,101181.98
2019-02-04T22:29:46.423Z,101177.01
2019-02-04T22:32:13.908Z,101182.66
2019-02-04T22:34:41.600Z,101176.09
2019-02-04T22:37:09.206Z,101174.44
2019-02-04T22:39:36.591Z,101173.20
2019-02-04T22:42:04.312Z,101182.28
2019-02-04T22:44:31.954Z,101178.39
2019-02-04T22:46:59.568Z,101174.04
2019-02-04T22:49:26.946Z,101176.63
2019-02-04T22:51:54.455Z,101185.34
2019-02-04T22:54:22.024Z,101186.37
2019-02-04T22:56:49.561Z,101185.71
2019-02-04T22:59:17.148Z,101187.20
2019-02-04T23:01:51.533Z,101189.14
2019-02-04T23:04:20.477Z,101187.11
2019-02-04T23:06:48.079Z,101192.39
2019-02-04T23:09:15.610Z,101189.91
2019-02-04T23:11:44.694Z,101195.62
2019-02-04T23:14:12.522Z,101188.98
2019-02-04T23:16:40.058Z,101189.15
2019-02-04T23:19:07.731Z,101188.16
2019-02-04T23:21:35.734Z,101193.03
2019-02-04T23:24:05.910Z,101182.41
2019-02-04T23:26:33.555Z,101182.05
2019-02-04T23:29:01.331Z,101178.33
2019-02-04T23:31:29.050Z,101183.34
2019-02-04T23:33:56.527Z,101187.30
2019-02-04T23:36:24.038Z,101184.80
2019-02-04T23:38:51.657Z,101180.55
2019-02-04T23:41:19.278Z,101177.33
2019-02-04T23:43:47.141Z,101184.70
2019-02-04T23:46:14.794Z,101184.07
2019-02-04T23:48:42.397Z,101173.52
2019-02-04T23:51:10.116Z,101173.25
2019-02-04T23:53:37.514Z,101169.99
2019-02-04T23:56:05.192Z,101167.97
2019-02-04T23:58:32.797Z,101164.64
